Time;durP1;ratioP1;P1;durP2;ratioP2;P2;SDS_P1;SDS_P2;PMS_P1;PMS_P2;Temp;Humidity;BMP_temperature;BMP_pressure;BME280_temperature;BME280_humidity;BME280_pressure;Samples;Min_cycle;Max_cycle;Signal;HPM_P1;HPM_P2
2023/09/15 00:01:14;;;;;;;7.90;7.15;;;;;;;-141.26;100.00;62741.75;5;38268824;45793494;-76
2023/09/15 00:05:20;;;;;;;9.13;8.05;;;;;;;-141.26;100.00;62741.75;5;38270050;45794564;-76
2023/09/15 00:09:18;;;;;;;9.25;7.60;;;;;;;-141.26;100.00;62741.75;5;38271499;45773474;-75
2023/09/15 00:12:43;;;;;;;7.78;7.15;;;;;;;16.26;100.00;96671.63;5;38268130;45793869;-75
2023/09/15 00:15:11;;;;;;;12.73;10.93;;;;;;;15.79;100.00;96674.03;5030359;27;105893;-75
2023/09/15 00:18:36;;;;;;;;;;;;;;;-141.26;100.00;62741.75;513272;28;45773501;-75
2023/09/15 00:22:41;;;;;;;10.35;9.20;;;;;;;-141.26;100.00;62741.75;5;36768558;45794344;-75
2023/09/15 00:26:37;;;;;;;10.13;8.80;;;;;;;-141.26;100.00;62741.75;5;38270357;45773401;-74
2023/09/15 00:30:37;;;;;;;11.93;8.85;;;;;;;-141.26;100.00;62741.75;5;38269233;45793042;-74
2023/09/15 00:33:05;;;;;;;12.40;10.60;;;;;;;-141.26;100.00;62741.75;3742282;27;38435286;-75
2023/09/15 00:35:32;;;;;;;11.07;9.97;;;;;;;-141.26;100.00;62741.75;5121262;28;20230;-74
2023/09/15 00:38:00;;;;;;;12.33;11.13;;;;;;;-141.26;100.00;62741.75;5121596;28;20241;-75
2023/09/15 00:40:27;;;;;;;15.07;11.37;;;;;;;-141.26;100.00;62741.75;5121721;27;20251;-76
2023/09/15 00:42:54;;;;;;;13.33;11.30;;;;;;;-141.26;100.00;62741.75;5121494;27;20343;-73
2023/09/15 00:45:22;;;;;;;11.73;10.53;;;;;;;-141.26;100.00;62741.75;5121588;28;20225;-73
2023/09/15 00:47:52;;;;;;;14.93;11.83;;;;;;;-141.26;100.00;62741.75;5121344;28;20250;-73
2023/09/15 00:50:22;;;;;;;15.17;13.33;;;;;;;-141.26;100.00;62741.75;5122677;28;20239;-73
2023/09/15 00:52:51;;;;;;;16.03;12.83;;;;;;;-141.26;100.00;62741.75;5121473;28;20247;-73
2023/09/15 00:55:24;;;;;;;17.77;13.23;;;;;;;-141.26;100.00;62741.75;5121309;28;20232;-73
2023/09/15 00:57:53;;;;;;;16.07;12.90;;;;;;;-141.26;100.00;62741.75;5122601;28;20213;-73
2023/09/15 01:00:22;;;;;;;15.10;13.23;;;;;;;-141.26;100.00;62741.75;5121257;28;20228;-73
2023/09/15 01:02:50;;;;;;;16.43;13.13;;;;;;;-141.26;100.00;62741.75;5121297;28;20232;-73
2023/09/15 01:05:22;;;;;;;19.70;14.43;;;;;;;-141.26;100.00;62741.75;5121173;28;20221;-74
2023/09/15 01:07:51;;;;;;;16.73;13.20;;;;;;;-141.26;100.00;62741.75;5121317;28;20225;-74
2023/09/15 01:10:20;;;;;;;17.53;13.17;;;;;;;-141.26;100.00;62741.75;5121220;28;20220;-74
2023/09/15 01:12:48;;;;;;;19.57;14.73;;;;;;;-141.26;100.00;62741.75;5120966;28;20216;-73
2023/09/15 01:15:16;;;;;;;17.53;14.23;;;;;;;-141.26;100.00;62741.75;5121268;28;20220;-73
2023/09/15 01:17:49;;;;;;;17.53;14.97;;;;;;;-141.26;100.00;62741.75;5121135;28;20233;-73
2023/09/15 01:20:21;;;;;;;17.27;14.70;;;;;;;-141.26;100.00;62741.75;5121364;28;20266;-73
2023/09/15 01:23:02;;;;;;;17.53;14.10;;;;;;;-141.26;100.00;62741.75;5121204;28;20212;-73
2023/09/15 01:26:05;;;;;;;21.73;15.97;;;;;;;-141.26;100.00;62741.75;5121193;27;20235;-73
2023/09/15 01:28:58;;;;;;;21.90;15.83;;;;;;;-141.26;100.00;62741.75;5124570;27;20219;-73
2023/09/15 01:31:26;;;;;;;19.10;15.77;;;;;;;-141.26;100.00;62741.75;5124566;28;20220;-73
2023/09/15 01:33:54;;;;;;;19.70;15.47;;;;;;;-141.26;100.00;62741.75;5124397;28;20216;-74
2023/09/15 01:36:21;;;;;;;18.07;14.70;;;;;;;-141.26;100.00;62741.75;5124171;27;20228;-74
2023/09/15 01:38:48;;;;;;;19.63;16.07;;;;;;;-141.26;100.00;62741.75;5124457;28;20229;-73
2023/09/15 01:41:15;;;;;;;19.57;14.80;;;;;;;-141.26;100.00;62741.75;5124351;28;20228;-73
2023/09/15 01:43:43;;;;;;;20.80;16.03;;;;;;;-141.26;100.00;62741.75;5124353;27;20248;-73
2023/09/15 01:46:11;;;;;;;22.83;17.23;;;;;;;-141.26;100.00;62741.75;5124228;28;20216;-74
2023/09/15 01:48:40;;;;;;;20.70;16.07;;;;;;;-141.26;100.00;62741.75;5124327;28;20228;-73
2023/09/15 01:51:07;;;;;;;22.20;16.17;;;;;;;-141.26;100.00;62741.75;5124311;28;20266;-73
2023/09/15 01:53:36;;;;;;;22.57;17.20;;;;;;;-141.26;100.00;62741.75;5124161;28;20224;-73
2023/09/15 01:56:03;;;;;;;21.57;16.23;;;;;;;-141.26;100.00;62741.75;5124036;28;20248;-73
2023/09/15 01:58:30;;;;;;;23.43;16.70;;;;;;;-141.26;100.00;62741.75;5124209;27;20310;-73
2023/09/15 02:00:57;;;;;;;19.57;15.00;;;;;;;-141.26;100.00;62741.75;5124010;28;20205;-73
2023/09/15 02:03:26;;;;;;;18.60;16.13;;;;;;;-141.26;100.00;62741.75;5124203;28;20228;-73
2023/09/15 02:06:00;;;;;;;17.13;14.20;;;;;;;-141.26;100.00;62741.75;5123855;27;20221;-72
2023/09/15 02:08:27;;;;;;;17.60;14.77;;;;;;;-141.26;100.00;62741.75;5123973;28;20218;-74
2023/09/15 02:10:56;;;;;;;24.10;14.40;;;;;;;-141.26;100.00;62741.75;5123922;28;20311;-73
2023/09/15 02:13:23;;;;;;;18.17;15.27;;;;;;;-141.26;100.00;62741.75;5123843;28;20224;-73
2023/09/15 02:15:53;;;;;;;16.03;14.33;;;;;;;-141.26;100.00;62741.75;5123713;28;20229;-73
2023/09/15 02:18:20;;;;;;;17.13;13.70;;;;;;;-141.26;100.00;62741.75;5123872;28;20225;-73
2023/09/15 02:20:55;;;;;;;15.93;13.47;;;;;;;-141.26;100.00;62741.75;5123859;28;20212;-73
2023/09/15 02:23:23;;;;;;;18.83;14.70;;;;;;;-141.26;100.00;62741.75;5123869;28;20215;-73
2023/09/15 02:25:50;;;;;;;16.77;13.53;;;;;;;-141.26;100.00;62741.75;5123499;28;20225;-73
2023/09/15 02:28:18;;;;;;;16.23;13.73;;;;;;;-141.26;100.00;62741.75;5123773;28;20219;-73
2023/09/15 02:30:45;;;;;;;17.60;15.47;;;;;;;-141.26;100.00;62741.75;5123704;28;20278;-74
2023/09/15 02:33:12;;;;;;;15.77;13.57;;;;;;;-141.26;100.00;62741.75;5123436;28;20231;-75
2023/09/15 02:35:39;;;;;;;14.73;12.97;;;;;;;-141.26;100.00;62741.75;5122876;27;20243;-75
2023/09/15 02:38:08;;;;;;;16.43;14.67;;;;;;;-141.26;100.00;62741.75;5122530;27;20235;-74
2023/09/15 02:40:34;;;;;;;17.33;15.00;;;;;;;-141.26;100.00;62741.75;5123397;28;20212;-75
2023/09/15 02:43:02;;;;;;;15.63;13.03;;;;;;;-141.26;100.00;62741.75;5123530;28;20217;-75
2023/09/15 02:45:29;;;;;;;15.97;14.27;;;;;;;-141.26;100.00;62741.75;5123385;27;20266;-75
2023/09/15 02:47:56;;;;;;;16.70;14.03;;;;;;;-141.26;100.00;62741.75;5123575;28;20251;-75
2023/09/15 02:50:23;;;;;;;13.93;12.27;;;;;;;-141.26;100.00;62741.75;5123242;27;20331;-75
2023/09/15 02:52:50;;;;;;;15.80;14.07;;;;;;;-141.26;100.00;62741.75;5123164;28;20227;-74
2023/09/15 02:55:19;;;;;;;14.87;13.37;;;;;;;-141.26;100.00;62741.75;5123339;28;20224;-74
2023/09/15 02:57:46;;;;;;;15.07;12.83;;;;;;;-141.26;100.00;62741.75;5123170;27;20205;-73
2023/09/15 03:00:14;;;;;;;17.20;15.37;;;;;;;-141.26;100.00;62741.75;5123094;28;20208;-73
2023/09/15 03:04:13;;;;;;;17.02;14.15;;;;;;;-141.26;100.00;62741.75;4594110;27;45772484;-73
2023/09/15 03:08:18;;;;;;;12.32;11.20;;;;;;;-141.26;100.00;62741.75;5;39769481;45792788;-73
2023/09/15 03:12:19;;;;;;;12.95;11.23;;;;;;;-141.26;100.00;62741.75;5;39769961;45772959;-73
2023/09/15 03:16:29;;;;;;;14.07;11.93;;;;;;;-141.26;100.00;62741.75;5;39769880;45792361;-73
2023/09/15 03:20:36;;;;;;;13.27;11.63;;;;;;;-141.26;100.00;62741.75;5;39769378;45792289;-74
2023/09/15 03:24:36;;;;;;;13.55;10.73;;;;;;;-141.26;100.00;62741.75;5;39770014;45773110;-75
2023/09/15 03:28:38;;;;;;;13.45;11.70;;;;;;;-141.26;100.00;62741.75;5;39770422;45792970;-76
2023/09/15 03:31:06;;;;;;;16.83;14.77;;;;;;;16.38;100.00;96598.78;414522;28;45773430;-76
2023/09/15 03:35:22;;;;;;;17.05;13.13;;;;;;;-141.26;100.00;62741.75;2775030;28;45792567;-75
2023/09/15 03:39:27;;;;;;;20.70;14.50;;;;;;;-141.26;100.00;62741.75;150245;28;45773717;-76
2023/09/15 03:43:28;;;;;;;17.95;14.85;;;;;;;-141.26;100.00;62741.75;5;39770507;45793054;-74
2023/09/15 03:47:34;;;;;;;14.50;12.77;;;;;;;-141.26;100.00;62741.75;5;39769315;45793745;-73
2023/09/15 03:51:33;;;;;;;24.08;16.30;;;;;;;-141.26;100.00;62741.75;5;39769655;45774936;-73
2023/09/15 03:55:33;;;;;;;15.73;13.10;;;;;;;-141.26;100.00;62741.75;5;39770519;45792463;-75
2023/09/15 03:59:40;;;;;;;15.80;14.20;;;;;;;-141.26;100.00;62741.75;5;39770619;45794042;-76
2023/09/15 04:03:39;;;;;;;18.10;12.60;;;;;;;-141.26;100.00;62741.75;5;39770613;45773625;-73
2023/09/15 04:07:39;;;;;;;15.80;12.82;;;;;;;-141.26;100.00;62741.75;5;39769840;45793217;-74
2023/09/15 04:11:44;;;;;;;19.52;15.52;;;;;;;-141.26;100.00;62741.75;5;39770033;45792805;-74
2023/09/15 04:14:12;;;;;;;19.83;16.97;;;;;;;16.34;100.00;96573.56;2340374;28;39769223;-74
2023/09/15 04:16:41;;;;;;;18.90;15.93;;;;;;;16.33;100.00;96580.03;5016863;28;400725;-74
2023/09/15 04:19:08;;;;;;;21.17;16.47;;;;;;;16.17;100.00;96570.50;5027474;28;115734;-74
2023/09/15 04:21:37;;;;;;;22.43;18.00;;;;;;;-141.26;100.00;62741.75;4652635;28;12624265;-74
2023/09/15 04:24:04;;;;;;;22.10;16.30;;;;;;;-141.26;100.00;62741.75;5121866;28;20224;-75
2023/09/15 04:26:31;;;;;;;24.20;18.23;;;;;;;-141.26;100.00;62741.75;5122519;28;20213;-75
2023/09/15 04:28:58;;;;;;;22.93;18.27;;;;;;;-141.26;100.00;62741.75;5122387;27;20221;-75
2023/09/15 04:31:25;;;;;;;20.30;16.87;;;;;;;-141.26;100.00;62741.75;5124080;27;20216;-76
2023/09/15 04:33:54;;;;;;;18.97;16.97;;;;;;;-141.26;100.00;62741.75;5122543;28;20229;-76
2023/09/15 04:36:53;;;;;;;22.00;18.37;;;;;;;-141.26;100.00;62741.75;5122027;28;20224;-76
2023/09/15 04:39:20;;;;;;;19.70;17.30;;;;;;;-141.26;100.00;62741.75;5122502;27;20217;-76
2023/09/15 04:41:47;;;;;;;22.77;19.07;;;;;;;-141.26;100.00;62741.75;5122447;27;20233;-76
2023/09/15 04:44:15;;;;;;;19.53;14.73;;;;;;;-141.26;100.00;62741.75;5122312;28;20224;-75
2023/09/15 04:46:42;;;;;;;20.63;15.70;;;;;;;-141.26;100.00;62741.75;5122395;28;20300;-76
2023/09/15 04:49:11;;;;;;;21.80;18.03;;;;;;;-141.26;100.00;62741.75;5122171;27;20240;-76
2023/09/15 04:51:40;;;;;;;21.57;18.63;;;;;;;-141.26;100.00;62741.75;5122338;28;20287;-76
2023/09/15 04:54:07;;;;;;;21.10;17.80;;;;;;;-141.26;100.00;62741.75;5122210;27;20251;-76
2023/09/15 04:56:35;;;;;;;21.90;18.87;;;;;;;-141.26;100.00;62741.75;5122473;28;20236;-75
2023/09/15 04:59:02;;;;;;;18.17;16.10;;;;;;;-141.26;100.00;62741.75;5122232;28;20214;-75
2023/09/15 05:01:30;;;;;;;18.97;16.97;;;;;;;-141.26;100.00;62741.75;5121532;28;20225;-75
2023/09/15 05:03:58;;;;;;;18.47;14.80;;;;;;;-141.26;100.00;62741.75;5122082;28;20225;-75
2023/09/15 05:06:27;;;;;;;18.47;15.67;;;;;;;-141.26;100.00;62741.75;5122239;28;20278;-75
2023/09/15 05:08:55;;;;;;;17.60;15.77;;;;;;;-141.26;100.00;62741.75;5122060;28;20232;-75
2023/09/15 05:11:22;;;;;;;18.20;15.20;;;;;;;-141.26;100.00;62741.75;5122059;28;20224;-75
2023/09/15 05:13:49;;;;;;;19.53;17.40;;;;;;;-141.26;100.00;62741.75;5121919;28;20240;-75
2023/09/15 05:16:18;;;;;;;19.70;17.60;;;;;;;-141.26;100.00;62741.75;5121698;28;20240;-75
2023/09/15 05:18:46;;;;;;;21.57;18.47;;;;;;;-141.26;100.00;62741.75;5121747;28;20216;-75
2023/09/15 05:21:13;;;;;;;20.87;17.17;;;;;;;-141.26;100.00;62741.75;5121878;28;20315;-74
2023/09/15 05:23:41;;;;;;;20.50;17.67;;;;;;;-141.26;100.00;62741.75;5121733;28;20217;-75
2023/09/15 05:26:09;;;;;;;20.17;16.80;;;;;;;-141.26;100.00;62741.75;5121849;27;20221;-75
2023/09/15 05:28:35;;;;;;;17.17;15.27;;;;;;;-141.26;100.00;62741.75;5121798;28;20228;-75
2023/09/15 05:31:02;;;;;;;18.53;15.50;;;;;;;16.79;100.00;96581.25;5112074;27;101619;-75
2023/09/15 05:33:32;;;;;;;19.63;17.43;;;;;;;16.38;100.00;96582.69;5000054;28;857085;-75
2023/09/15 05:35:59;;;;;;;19.97;15.60;;;;;;;16.46;100.00;96595.53;5026602;27;106092;-74
2023/09/15 05:38:27;;;;;;;20.47;16.10;;;;;;;16.39;100.00;96584.31;5031017;28;101840;-74
2023/09/15 05:40:55;;;;;;;20.60;17.90;;;;;;;16.35;100.00;96588.63;5027074;28;105662;-74
2023/09/15 05:43:22;;;;;;;20.70;17.73;;;;;;;16.39;100.00;96581.63;5027738;28;101885;-74
2023/09/15 05:45:50;;;;;;;18.57;16.57;;;;;;;16.74;100.00;96582.09;5027669;28;105010;-74
2023/09/15 05:48:22;;;;;;;21.77;19.00;;;;;;;16.52;100.00;96576.41;5026871;28;105582;-74
2023/09/15 05:50:50;;;;;;;20.60;16.83;;;;;;;16.51;100.00;96582.06;5027624;28;102011;-74
2023/09/15 05:53:17;;;;;;;18.70;16.70;;;;;;;16.44;100.00;96582.38;5027552;28;105067;-74
2023/09/15 05:55:44;;;;;;;19.07;16.97;;;;;;;16.33;100.00;96588.91;5026974;28;105351;-75
2023/09/15 05:58:13;;;;;;;22.40;16.83;;;;;;;16.44;100.00;96589.63;5027401;28;102087;-75
2023/09/15 06:00:41;;;;;;;19.97;17.53;;;;;;;16.14;100.00;96587.19;5030220;28;105624;-75
2023/09/15 06:03:08;;;;;;;17.87;16.03;;;;;;;16.27;100.00;96592.72;5027272;28;101987;-75
2023/09/15 06:05:35;;;;;;;19.07;15.63;;;;;;;16.91;100.00;96590.53;5027372;28;105473;-74
2023/09/15 06:08:03;;;;;;;18.90;16.40;;;;;;;17.04;100.00;96578.28;5026663;28;105822;-75
2023/09/15 06:10:30;;;;;;;18.37;16.47;;;;;;;16.87;100.00;96575.25;5026598;28;101969;-75
2023/09/15 06:12:57;;;;;;;21.00;17.33;;;;;;;16.59;100.00;96573.38;5027389;27;105042;-74
2023/09/15 06:15:26;;;;;;;18.07;16.27;;;;;;;16.63;100.00;96579.81;5029364;28;106093;-75
2023/09/15 06:17:53;;;;;;;17.40;15.60;;;;;;;16.60;100.00;96572.28;5029837;28;102058;-75
2023/09/15 06:20:20;;;;;;;19.20;15.33;;;;;;;16.67;100.00;96575.47;5032736;28;104484;-74
2023/09/15 06:22:47;;;;;;;16.93;15.10;;;;;;;16.67;100.00;96576.25;5029691;28;102159;-74
2023/09/15 06:25:14;;;;;;;15.03;13.50;;;;;;;16.75;100.00;96572.16;5029461;28;105976;-74
2023/09/15 06:27:41;;;;;;;16.70;13.57;;;;;;;17.04;100.00;96570.22;5029293;28;106003;-74
2023/09/15 06:30:09;;;;;;;15.00;13.47;;;;;;;17.21;100.00;96574.03;5029622;28;102112;-74
2023/09/15 06:32:37;;;;;;;15.27;13.67;;;;;;;17.37;100.00;96567.38;5029328;28;105631;-74
2023/09/15 06:35:05;;;;;;;13.03;11.73;;;;;;;17.73;100.00;96573.13;5031988;27;105342;-74
2023/09/15 06:37:33;;;;;;;13.40;12.10;;;;;;;17.80;100.00;96568.97;5033005;27;101844;-75
2023/09/15 06:39:59;;;;;;;13.13;11.77;;;;;;;17.72;100.00;96566.94;5032959;27;104203;-75
2023/09/15 06:42:26;;;;;;;11.13;10.03;;;;;;;17.73;100.00;96567.75;5035700;27;106093;-75
2023/09/15 06:44:53;;;;;;;9.90;8.90;;;;;;;17.87;100.00;96565.94;5032700;27;105424;-75
2023/09/15 06:47:20;;;;;;;10.30;9.37;;;;;;;17.90;100.00;96558.06;5051494;27;102112;-75
2023/09/15 06:49:48;;;;;;;9.03;8.23;;;;;;;18.30;100.00;96559.31;5033718;27;102166;-75
2023/09/15 06:52:15;;;;;;;9.70;8.30;;;;;;;18.36;100.00;96556.28;5033642;27;105455;-75
2023/09/15 06:54:42;;;;;;;8.70;7.90;;;;;;;18.40;100.00;96551.09;5051425;27;102919;-75
2023/09/15 06:57:09;;;;;;;8.70;7.90;;;;;;;18.55;100.00;96550.84;5033854;27;102061;-74
2023/09/15 06:59:36;;;;;;;8.30;7.60;;;;;;;18.57;100.00;96543.25;5033284;27;105730;-74
2023/09/15 07:02:04;;;;;;;7.97;7.27;;;;;;;18.73;100.00;96550.78;5028380;27;106096;-75
2023/09/15 07:04:31;;;;;;;6.97;6.37;;;;;;;18.90;100.00;96551.00;5044311;27;101971;-74
2023/09/15 07:06:59;;;;;;;7.83;7.23;;;;;;;18.69;100.00;96548.97;5032616;27;106076;-74
2023/09/15 07:09:26;;;;;;;7.27;6.67;;;;;;;18.41;100.00;96553.50;5034466;27;101971;-74
2023/09/15 07:11:53;;;;;;;7.70;7.00;;;;;;;18.56;100.00;96547.84;5034026;27;102970;-74
2023/09/15 07:14:20;;;;;;;7.73;7.00;;;;;;;18.65;100.00;96545.28;5033047;27;105554;-75
2023/09/15 07:16:48;;;;;;;7.70;7.00;;;;;;;18.58;100.00;96542.97;5033779;27;102182;-73
2023/09/15 07:19:15;;;;;;;7.40;6.80;;;;;;;18.92;100.00;96542.59;5034081;27;105204;-73
2023/09/15 07:21:44;;;;;;;8.20;7.50;;;;;;;18.82;100.00;96542.78;5032683;27;104039;-72
2023/09/15 07:24:12;;;;;;;7.70;6.93;;;;;;;18.79;100.00;96533.41;5031966;27;102044;-73
2023/09/15 07:26:39;;;;;;;7.50;6.90;;;;;;;18.80;100.00;96537.69;5019542;27;105173;-73
2023/09/15 07:29:06;;;;;;;8.03;7.27;;;;;;;18.71;100.00;96536.81;5033412;27;101999;-74
2023/09/15 07:31:35;;;;;;;7.43;6.83;;;;;;;18.41;100.00;96541.91;5033536;27;105032;-73
2023/09/15 07:34:03;;;;;;;6.80;6.23;;;;;;;18.62;100.00;96537.78;5032904;27;106011;-73
2023/09/15 07:36:30;;;;;;;7.13;6.53;;;;;;;18.82;100.00;96550.88;5032862;27;102246;-74
2023/09/15 07:38:57;;;;;;;7.47;6.83;;;;;;;18.77;100.00;96546.41;5033404;27;103584;-74
2023/09/15 07:41:37;;;;;;;8.47;7.77;;;;;;;18.62;100.00;96545.84;5032893;27;105367;-78
2023/09/15 07:44:05;;;;;;;7.20;6.60;;;;;;;18.26;100.00;96544.84;5033273;27;102033;-73
2023/09/15 07:46:36;;;;;;;7.83;7.17;;;;;;;18.08;100.00;96543.78;5033767;27;105113;-79
2023/09/15 07:49:03;;;;;;;7.50;6.77;;;;;;;18.09;100.00;96533.84;5054391;27;102797;-73
2023/09/15 07:51:30;;;;;;;8.33;7.53;;;;;;;18.15;100.00;96538.81;5033254;27;105061;-74
2023/09/15 07:53:57;;;;;;;7.63;6.93;;;;;;;18.38;100.00;96543.34;5032912;27;105192;-73
2023/09/15 07:56:25;;;;;;;7.83;7.13;;;;;;;18.46;100.00;96545.34;5016576;27;102106;-73
2023/09/15 07:58:53;;;;;;;7.67;6.83;;;;;;;18.51;100.00;96549.81;5032698;27;105316;-73
2023/09/15 08:01:20;;;;;;;7.77;7.07;;;;;;;18.55;100.00;96545.44;5031819;27;104520;-74
2023/09/15 08:03:47;;;;;;;7.80;7.10;;;;;;;18.54;100.00;96549.25;5033033;27;102175;-75
2023/09/15 08:06:15;;;;;;;7.53;6.93;;;;;;;18.71;100.00;96546.78;5033259;27;105477;-73
2023/09/15 08:08:42;;;;;;;7.33;6.73;;;;;;;18.76;100.00;96552.06;5032504;27;105599;-73
2023/09/15 08:11:09;;;;;;;7.83;7.13;;;;;;;19.13;100.00;96560.78;5035756;27;103191;-73
2023/09/15 08:13:36;;;;;;;8.50;7.03;;;;;;;19.36;100.00;96545.50;5050531;27;102861;-73
2023/09/15 08:16:05;;;;;;;7.40;6.57;;;;;;;19.73;100.00;96543.34;5033203;27;102322;-73
2023/09/15 08:18:32;;;;;;;6.70;6.20;;;;;;;20.10;100.00;96544.97;5032897;27;105063;-74
2023/09/15 08:20:59;;;;;;;6.77;6.27;;;;;;;20.40;100.00;96538.81;5032272;27;104064;-74
2023/09/15 08:23:26;;;;;;;7.40;6.70;;;;;;;20.66;100.00;96535.13;5032941;27;101947;-74
2023/09/15 08:25:53;;;;;;;7.73;6.07;;;;;;;20.69;100.00;96536.41;5051335;27;102583;-74
2023/09/15 08:28:22;;;;;;;6.80;6.30;;;;;;;20.34;100.00;96531.94;5032107;27;104187;-74
2023/09/15 08:30:50;;;;;;;6.63;6.03;;;;;;;20.22;100.00;96537.09;5053208;27;101820;-74
2023/09/15 08:33:19;;;;;;;6.20;5.70;;;;;;;20.12;100.00;96534.66;5050262;27;102126;-73
2023/09/15 08:35:46;;;;;;;6.10;5.60;;;;;;;20.39;100.00;96527.19;5030955;27;102313;-74
2023/09/15 08:38:14;;;;;;;6.73;5.70;;;;;;;20.27;100.00;96526.19;5051013;27;102677;-73
2023/09/15 08:40:49;;;;;;;6.33;5.73;;;;;;;20.33;100.00;96527.66;5031338;27;104337;-73
2023/09/15 08:43:22;;;;;;;6.20;5.70;;;;;;;20.68;100.00;96521.31;5032678;27;102054;-73
2023/09/15 08:45:53;;;;;;;6.30;5.80;;;;;;;20.79;100.00;96528.03;5032540;27;105852;-74
2023/09/15 08:48:26;;;;;;;5.80;5.30;;;;;;;20.96;100.00;96523.53;5050202;27;103908;-75
2023/09/15 08:50:59;;;;;;;5.67;5.17;;;;;;;21.56;100.00;96523.69;5032037;27;101955;-73
2023/09/15 08:53:27;;;;;;;5.10;4.70;;;;;;;21.75;100.00;96513.41;5034286;27;105568;-74
2023/09/15 08:55:54;;;;;;;5.50;5.10;;;;;;;21.31;100.00;96510.94;5047639;27;101848;-74
2023/09/15 08:58:22;;;;;;;5.23;4.73;;;;;;;21.66;100.00;96513.38;5031967;27;104790;-74
2023/09/15 09:00:50;;;;;;;5.43;4.93;;;;;;;21.94;100.00;96508.47;5030657;27;105697;-73
2023/09/15 09:03:17;;;;;;;5.53;5.03;;;;;;;21.80;100.00;96516.75;5032316;27;102378;-73
2023/09/15 09:05:48;;;;;;;5.73;5.13;;;;;;;21.83;100.00;96510.69;5032370;27;105385;-73
2023/09/15 09:08:16;;;;;;;5.07;4.67;;;;;;;21.24;100.00;96516.78;5031671;27;104337;-73
2023/09/15 09:10:44;;;;;;;5.17;4.60;;;;;;;21.64;100.00;96514.81;5031557;27;101986;-73
2023/09/15 09:13:12;;;;;;;5.23;4.77;;;;;;;22.21;100.00;96508.13;5032082;27;105265;-74
2023/09/15 09:15:41;;;;;;;5.10;4.70;;;;;;;22.41;100.00;96510.97;5035141;27;104548;-73
2023/09/15 09:18:15;;;;;;;4.93;4.53;;;;;;;22.51;100.00;96507.16;5031770;27;105354;-73
2023/09/15 09:20:42;;;;;;;4.87;4.47;;;;;;;22.44;100.00;96498.69;5030859;27;105835;-73
2023/09/15 09:23:11;;;;;;;4.40;4.10;;;;;;;22.75;100.00;96510.09;5032137;27;101998;-73
2023/09/15 09:25:39;;;;;;;4.90;4.47;;;;;;;22.75;100.00;96505.47;5049894;27;102574;-77
2023/09/15 09:28:07;;;;;;;4.80;4.40;;;;;;;22.52;100.00;96506.84;5049287;27;102928;-74
2023/09/15 09:30:34;;;;;;;4.57;4.17;;;;;;;21.94;100.00;96505.75;5027051;27;101989;-74
2023/09/15 09:33:02;;;;;;;4.90;4.50;;;;;;;22.54;100.00;96511.91;5031917;27;105753;-74
2023/09/15 09:35:29;;;;;;;4.83;4.43;;;;;;;23.27;100.00;96506.84;5030989;27;105180;-74
2023/09/15 09:37:57;;;;;;;4.70;4.30;;;;;;;23.38;100.00;96502.63;5034336;27;102045;-76
2023/09/15 09:40:26;;;;;;;4.83;4.33;;;;;;;23.39;100.00;96501.53;5031210;27;105295;-73
2023/09/15 09:42:54;;;;;;;4.73;4.33;;;;;;;23.70;100.00;96510.09;5031817;27;102555;-73
2023/09/15 09:45:26;;;;;;;4.27;3.97;;;;;;;23.91;100.00;96512.84;5031604;27;105087;-76
2023/09/15 09:47:54;;;;;;;4.20;3.90;;;;;;;23.65;100.00;96507.56;5033594;27;105119;-74
2023/09/15 09:50:22;;;;;;;4.37;3.97;;;;;;;24.28;100.00;96509.16;5035508;27;102182;-74
2023/09/15 09:52:49;;;;;;;4.53;4.23;;;;;;;24.61;100.00;96502.63;5034485;27;105154;-73
2023/09/15 09:55:16;;;;;;;4.13;3.83;;;;;;;24.98;100.00;96500.75;5034260;27;105666;-74
2023/09/15 09:57:45;;;;;;;4.93;4.27;;;;;;;24.79;100.00;96503.25;5053100;27;101790;-76
2023/09/15 10:00:18;;;;;;;4.27;3.97;;;;;;;25.06;100.00;96499.88;5037904;27;105246;-76
2023/09/15 10:02:47;;;;;;;4.53;4.13;;;;;;;25.03;100.00;96492.38;5034873;27;101885;-76
2023/09/15 10:05:15;;;;;;;4.90;4.40;;;;;;;24.82;100.00;96486.22;5034835;27;105012;-76
2023/09/15 10:07:45;;;;;;;4.43;4.03;;;;;;;25.15;100.00;96490.44;5034036;27;105503;-76
2023/09/15 10:10:13;;;;;;;4.30;4.00;;;;;;;25.12;100.00;96502.00;5051204;27;102284;-76
2023/09/15 10:12:40;;;;;;;4.03;3.73;;;;;;;24.85;100.00;96488.28;5034396;27;104847;-76
2023/09/15 10:15:12;;;;;;;3.90;3.60;;;;;;;25.32;100.00;96492.97;5034487;27;105327;-76
2023/09/15 10:17:39;;;;;;;4.37;3.97;;;;;;;25.04;100.00;96485.78;5053590;27;101790;-76
2023/09/15 10:20:09;;;;;;;4.60;4.00;;;;;;;25.60;100.00;96485.66;5034640;27;103658;-76
2023/09/15 10:22:41;;;;;;;4.50;4.20;;;;;;;25.35;100.00;96484.13;5055292;27;101935;-76
2023/09/15 10:25:20;;;;;;;4.83;4.20;;;;;;;25.82;100.00;96474.25;5034498;27;105222;-76
2023/09/15 10:27:48;;;;;;;4.23;3.90;;;;;;;25.92;100.00;96476.53;5052699;27;102863;-76
2023/09/15 10:30:16;;;;;;;4.00;3.70;;;;;;;25.61;100.00;96467.41;5053291;27;101826;-77
2023/09/15 10:32:44;;;;;;;3.80;3.50;;;;;;;25.64;100.00;96481.13;5034453;27;105046;-75
2023/09/15 10:35:12;;;;;;;3.77;3.50;;;;;;;25.40;100.00;96470.25;5029822;27;105539;-76
2023/09/15 10:37:42;;;;;;;3.80;3.50;;;;;;;25.52;100.00;96469.47;5031295;28;101927;-76
2023/09/15 10:40:12;;;;;;;4.07;3.77;;;;;;;25.81;100.00;96474.59;5031382;28;105485;-76
2023/09/15 10:42:49;;;;;;;4.30;3.90;;;;;;;25.39;100.00;96462.44;5033648;28;105781;-76
2023/09/15 10:45:18;;;;;;;4.57;4.17;;;;;;;25.59;100.00;96466.94;5030791;28;105134;-76
2023/09/15 10:47:56;;;;;;;4.10;3.80;;;;;;;25.49;100.00;96460.03;5031822;28;103020;-76
2023/09/15 10:50:31;;;;;;;3.90;3.60;;;;;;;24.93;100.00;96465.59;5030641;28;101849;-76
2023/09/15 10:53:07;;;;;;;4.53;4.23;;;;;;;24.96;100.00;96467.66;5030662;28;105422;-76
2023/09/15 10:55:34;;;;;;;4.67;4.27;;;;;;;25.12;100.00;96452.25;5030119;28;104133;-76
2023/09/15 10:58:02;;;;;;;4.73;4.20;;;;;;;25.42;100.00;96459.03;5030406;27;101962;-76
2023/09/15 11:00:31;;;;;;;4.93;4.40;;;;;;;25.79;100.00;96466.00;5030230;28;105638;-76
2023/09/15 11:02:58;;;;;;;4.17;3.80;;;;;;;26.08;100.00;96457.50;5029680;28;105898;-76
2023/09/15 11:05:27;;;;;;;4.27;3.97;;;;;;;25.88;100.00;96444.84;5034346;28;101943;-76
2023/09/15 11:07:56;;;;;;;4.40;4.10;;;;;;;25.67;100.00;96446.97;5029811;28;103785;-76
2023/09/15 11:10:28;;;;;;;4.03;3.63;;;;;;;25.82;100.00;96446.25;5030732;28;101976;-76
2023/09/15 11:12:59;;;;;;;5.00;4.20;;;;;;;26.00;100.00;96437.44;5030048;28;105494;-76
2023/09/15 11:15:26;;;;;;;4.30;4.00;;;;;;;26.25;100.00;96435.38;5030034;28;105866;-76
2023/09/15 11:17:55;;;;;;;3.97;3.67;;;;;;;26.27;100.00;96433.13;5030735;28;102348;-76
2023/09/15 11:20:22;;;;;;;5.07;4.00;;;;;;;26.02;100.00;96427.00;5030210;28;105127;-76
2023/09/15 11:22:55;;;;;;;4.03;3.57;;;;;;;26.26;100.00;96426.09;5029456;28;105303;-76
2023/09/15 11:25:22;;;;;;;4.37;3.80;;;;;;;26.42;100.00;96424.19;5030558;28;101782;-76
2023/09/15 11:27:50;;;;;;;4.40;4.00;;;;;;;26.71;100.00;96421.06;5033348;28;105270;-76
2023/09/15 11:30:17;;;;;;;4.07;3.77;;;;;;;26.53;100.00;96417.06;5030594;28;101972;-76
2023/09/15 11:32:45;;;;;;;4.20;3.90;;;;;;;26.35;100.00;96419.31;5029852;28;104289;-76
2023/09/15 11:35:13;;;;;;;4.13;3.73;;;;;;;26.35;100.00;96426.69;5029244;27;105406;-76
2023/09/15 11:37:42;;;;;;;4.20;3.80;;;;;;;26.39;100.00;96419.41;5030468;28;101903;-76
2023/09/15 11:40:20;;;;;;;3.87;3.50;;;;;;;26.66;100.00;96419.38;5030248;28;105932;-76
2023/09/15 11:42:52;;;;;;;4.30;3.90;;;;;;;26.54;100.00;96426.81;5029154;28;105447;-76
2023/09/15 11:45:20;;;;;;;4.50;4.10;;;;;;;26.63;100.00;96424.72;5029854;28;102052;-76
2023/09/15 11:47:48;;;;;;;4.20;3.90;;;;;;;26.94;100.00;96419.28;5030262;28;103886;-76